Time;durP1;ratioP1;P1;durP2;ratioP2;P2;SDS_P1;SDS_P2;PMS_P1;PMS_P2;Temp;Humidity;BMP_temperature;BMP_pressure;BME280_temperature;BME280_humidity;BME280_pressure;Samples;Min_cycle;Max_cycle;Signal;HPM_P1;HPM_P2
2022/02/27 00:03:22;;;;;;;16.90;6.30;;;;;;;;;;5193003;27;20479;-76
2022/02/27 00:05:48;;;;;;;12.37;5.87;;;;;;;;;;5162279;27;20223;-75
2022/02/27 00:08:14;;;;;;;10.95;5.78;;;;;;;;;;5150894;27;20426;-78
2022/02/27 00:10:40;;;;;;;7.07;5.10;;;;;;;;;;5170453;27;20220;-79
2022/02/27 00:13:06;;;;;;;9.30;5.10;;;;;;;;;;5114342;27;20907;-76
2022/02/27 00:15:32;;;;;;;11.07;5.85;;;;;;;;;;5106212;28;20448;-75
2022/02/27 00:17:58;;;;;;;11.75;4.68;;;;;;;;;;5070687;28;20530;-77
2022/02/27 00:20:24;;;;;;;8.77;4.85;;;;;;;;;;5014566;28;20193;-77
2022/02/27 00:22:50;;;;;;;18.48;6.32;;;;;;;;;;5007998;28;20309;-76
2022/02/27 00:27:35;;;;;;;11.20;5.65;;;;;;;;;;5193076;27;20479;-77
2022/02/27 00:30:01;;;;;;;13.98;5.40;;;;;;;;;;5187981;27;20188;-76
2022/02/27 00:32:27;;;;;;;16.08;7.65;;;;;;;;;;5172666;27;20279;-75
2022/02/27 00:34:53;;;;;;;14.70;6.70;;;;;;;;;;5165210;27;20218;-78
2022/02/27 00:37:19;;;;;;;13.20;5.83;;;;;;;;;;5161247;27;20447;-79
2022/02/27 00:39:45;;;;;;;20.55;7.97;;;;;;;;;;5122647;27;20460;-76
2022/02/27 00:42:11;;;;;;;12.05;5.45;;;;;;;;;;5109623;28;20222;-77
2022/02/27 00:44:38;;;;;;;12.07;5.78;;;;;;;;;;5135512;27;20195;-78
2022/02/27 00:47:04;;;;;;;12.60;5.07;;;;;;;;;;5136074;27;20619;-76
2022/02/27 00:51:45;;;;;;;16.65;6.07;;;;;;;;;;5193181;27;20484;-78
2022/02/27 00:54:11;;;;;;;16.02;6.35;;;;;;;;;;5170788;27;20639;-78
2022/02/27 00:56:38;;;;;;;17.27;5.70;;;;;;;;;;5177459;27;20224;-75
2022/02/27 00:59:04;;;;;;;12.27;6.13;;;;;;;;;;5170596;27;20193;-77
2022/02/27 01:01:30;;;;;;;13.63;6.45;;;;;;;;;;5114155;28;20547;-79
2022/02/27 01:03:56;;;;;;;10.70;5.55;;;;;;;;;;5106367;28;20229;-77
2022/02/27 01:06:23;;;;;;;11.82;5.40;;;;;;;;;;5093769;28;20246;-78
2022/02/27 01:08:49;;;;;;;13.73;5.63;;;;;;;;;;5045829;28;20199;-76
2022/02/27 01:11:15;;;;;;;16.92;6.10;;;;;;;;;;4999418;28;20226;-76
2022/02/27 01:13:41;;;;;;;18.25;5.65;;;;;;;;;;4891885;28;20252;-75
2022/02/27 01:17:26;;;;;;;12.63;5.20;;;;;;;;;;5192976;27;20499;-76
2022/02/27 01:19:52;;;;;;;12.80;5.00;;;;;;;;;;5170642;27;20196;-76
2022/02/27 01:22:18;;;;;;;12.57;5.13;;;;;;;;;;5192201;27;20180;-75
2022/02/27 01:24:44;;;;;;;15.73;5.07;;;;;;;;;;5149199;27;20601;-78
2022/02/27 01:27:10;;;;;;;11.47;4.67;;;;;;;;;;5080576;28;20208;-76
2022/02/27 01:29:36;;;;;;;13.30;5.10;;;;;;;;;;5077662;28;20437;-75
2022/02/27 01:32:02;;;;;;;13.95;5.65;;;;;;;;;;5049369;28;20848;-76
2022/02/27 01:34:28;;;;;;;12.38;5.40;;;;;;;;;;5045541;28;20275;-76
2022/02/27 01:36:56;;;;;;;12.98;5.82;;;;;;;;;;5046229;28;20221;-78
2022/02/27 01:41:59;;;;;;;12.07;4.57;;;;;;;;;;5193092;27;20511;-78
2022/02/27 01:44:25;;;;;;;12.75;5.50;;;;;;;;;;5170776;27;20188;-76
2022/02/27 01:47:01;;;;;;;11.45;5.07;;;;;;;;;;5175365;27;20208;-77
2022/02/27 01:49:27;;;;;;;12.68;5.22;;;;;;;;;;5149613;27;20285;-77
2022/02/27 01:51:53;;;;;;;12.95;5.70;;;;;;;;;;5160058;27;20198;-76
2022/02/27 01:54:20;;;;;;;9.20;4.63;;;;;;;;;;5138691;27;20201;-75
2022/02/27 01:56:46;;;;;;;11.60;4.88;;;;;;;;;;5085355;28;20687;-77
2022/02/27 01:59:12;;;;;;;13.55;5.13;;;;;;;;;;5060831;28;20220;-77
2022/02/27 02:01:38;;;;;;;12.13;5.22;;;;;;;;;;4950600;28;20328;-78
2022/02/27 02:06:38;;;;;;;13.73;5.03;;;;;;;;;;5178285;27;20660;-78
2022/02/27 02:09:05;;;;;;;15.30;5.10;;;;;;;;;;5170820;27;20700;-77
2022/02/27 02:11:31;;;;;;;10.70;4.25;;;;;;;;;;5192362;27;20191;-77
2022/02/27 02:13:57;;;;;;;13.73;4.32;;;;;;;;;;5191278;27;20184;-75
2022/02/27 02:16:23;;;;;;;12.18;4.68;;;;;;;;;;5181862;27;20213;-75
2022/02/27 02:18:50;;;;;;;12.18;5.53;;;;;;;;;;5174915;27;20192;-76
2022/02/27 02:21:16;;;;;;;7.20;4.57;;;;;;;;;;5166680;27;20189;-76
2022/02/27 02:23:42;;;;;;;11.30;5.67;;;;;;;;;;5148553;27;20190;-77
2022/02/27 02:26:09;;;;;;;8.93;4.82;;;;;;;;;;5090696;27;20469;-78
2022/02/27 02:28:35;;;;;;;8.73;5.57;;;;;;;;;;5073631;28;20192;-76
2022/02/27 02:32:45;;;;;;;12.30;5.22;;;;;;;;;;5192912;27;20484;-77
2022/02/27 02:35:11;;;;;;;10.38;5.18;;;;;;;;;;5168275;27;20190;-75
2022/02/27 02:37:37;;;;;;;11.30;5.10;;;;;;;;;;5171033;27;20218;-77
2022/02/27 02:40:04;;;;;;;13.82;6.28;;;;;;;;;;5140257;27;20252;-76
2022/02/27 02:42:30;;;;;;;9.52;5.00;;;;;;;;;;5102723;28;20297;-78
2022/02/27 02:44:56;;;;;;;14.15;6.03;;;;;;;;;;5085303;28;20188;-76
2022/02/27 02:47:23;;;;;;;16.00;7.97;;;;;;;;;;5026893;28;20214;-77
2022/02/27 02:49:49;;;;;;;10.13;4.95;;;;;;;;;;4977748;28;21100;-77
2022/02/27 02:52:18;;;;;;;12.13;4.73;;;;;;;;;;5015400;28;20226;-77
2022/02/27 02:57:19;;;;;;;12.55;4.60;;;;;;;;;;5172605;27;20483;-75
2022/02/27 02:59:45;;;;;;;24.73;4.73;;;;;;;;;;5170729;27;20193;-78
2022/02/27 03:02:10;;;;;;;7.83;4.23;;;;;;;;;;5192119;27;20489;-79
2022/02/27 03:04:37;;;;;;;12.60;4.33;;;;;;;;;;5165562;27;20446;-76
2022/02/27 03:07:04;;;;;;;13.20;5.00;;;;;;;;;;5119532;27;20541;-75
2022/02/27 03:09:33;;;;;;;12.60;5.88;;;;;;;;;;5119930;28;20183;-76
2022/02/27 03:11:59;;;;;;;19.73;5.03;;;;;;;;;;5152649;27;20629;-76
2022/02/27 03:14:25;;;;;;;14.90;5.38;;;;;;;;;;5131081;27;20199;-77
2022/02/27 03:16:51;;;;;;;8.70;4.73;;;;;;;;;;5102552;27;20226;-76
2022/02/27 03:19:17;;;;;;;15.20;6.38;;;;;;;;;;5099682;28;20420;-76
2022/02/27 03:22:45;;;;;;;11.68;4.78;;;;;;;;;;5192981;27;21019;-78
2022/02/27 03:25:11;;;;;;;14.10;5.28;;;;;;;;;;5168418;27;20189;-77
2022/02/27 03:27:37;;;;;;;9.93;4.33;;;;;;;;;;5151439;27;20262;-77
2022/02/27 03:30:04;;;;;;;14.25;6.22;;;;;;;;;;5170363;27;20521;-79
2022/02/27 03:32:30;;;;;;;6.35;3.92;;;;;;;;;;5093562;28;20189;-76
2022/02/27 03:34:56;;;;;;;7.57;3.70;;;;;;;;;;5065928;28;20207;-78
2022/02/27 03:37:22;;;;;;;14.15;4.68;;;;;;;;;;5083904;28;20807;-78
2022/02/27 03:39:48;;;;;;;7.13;3.83;;;;;;;;;;5086267;28;20185;-77
2022/02/27 03:42:14;;;;;;;7.50;4.25;;;;;;;;;;5070373;28;20476;-77
2022/02/27 03:44:40;;;;;;;12.73;4.93;;;;;;;;;;4977162;28;20559;-77
2022/02/27 03:48:26;;;;;;;12.68;4.97;;;;;;;;;;5192993;27;20484;-77
2022/02/27 03:50:52;;;;;;;10.90;4.60;;;;;;;;;;5187854;27;20180;-78
2022/02/27 03:53:18;;;;;;;20.25;4.72;;;;;;;;;;5172449;27;20713;-77
2022/02/27 03:55:45;;;;;;;7.90;4.70;;;;;;;;;;5184605;27;20209;-78
2022/02/27 03:58:11;;;;;;;11.23;5.68;;;;;;;;;;5128799;27;20414;-79
2022/02/27 04:00:37;;;;;;;6.95;3.58;;;;;;;;;;5066677;28;20700;-78
2022/02/27 04:03:03;;;;;;;10.93;3.92;;;;;;;;;;5076353;28;20192;-76
2022/02/27 04:05:29;;;;;;;13.93;4.97;;;;;;;;;;5081995;28;20216;-76
2022/02/27 04:07:55;;;;;;;13.52;4.15;;;;;;;;;;5020882;28;20605;-78
2022/02/27 04:13:09;;;;;;;12.50;4.95;;;;;;;;;;5193111;27;20480;-75
2022/02/27 04:15:35;;;;;;;15.57;5.00;;;;;;;;;;5182165;27;20205;-77
2022/02/27 04:18:01;;;;;;;14.23;4.90;;;;;;;;;;5171200;27;20244;-77
2022/02/27 04:20:27;;;;;;;6.57;4.40;;;;;;;;;;5144190;27;20194;-77
2022/02/27 04:22:53;;;;;;;8.80;3.88;;;;;;;;;;5066546;28;20940;-76
2022/02/27 04:25:19;;;;;;;12.90;6.47;;;;;;;;;;5036271;28;20268;-76
2022/02/27 04:27:45;;;;;;;11.32;5.35;;;;;;;;;;5063944;28;20247;-76
2022/02/27 04:30:11;;;;;;;13.48;4.90;;;;;;;;;;5062189;28;20219;-77
2022/02/27 04:32:37;;;;;;;15.70;5.30;;;;;;;;;;5034407;28;20217;-76
2022/02/27 04:38:20;;;;;;;9.68;5.38;;;;;;;;;;5193198;27;20495;-78
2022/02/27 04:40:46;;;;;;;12.27;4.65;;;;;;;;;;5187723;27;20188;-76
2022/02/27 04:43:12;;;;;;;8.82;4.90;;;;;;;;;;5172393;27;20219;-78
2022/02/27 04:45:38;;;;;;;10.25;4.97;;;;;;;;;;5185608;27;20564;-77
2022/02/27 04:48:04;;;;;;;12.98;5.45;;;;;;;;;;5113463;27;20234;-77
2022/02/27 04:50:30;;;;;;;9.75;4.82;;;;;;;;;;5038292;28;20288;-78
2022/02/27 04:52:56;;;;;;;11.02;4.88;;;;;;;;;;5064913;28;20241;-76
2022/02/27 04:55:22;;;;;;;10.50;4.87;;;;;;;;;;5070764;28;20219;-77
2022/02/27 04:57:48;;;;;;;14.48;5.10;;;;;;;;;;5021782;28;20545;-78
2022/02/27 05:02:48;;;;;;;11.43;5.25;;;;;;;;;;5192905;27;20483;-78
2022/02/27 05:05:14;;;;;;;12.73;4.53;;;;;;;;;;5184817;27;20192;-75
2022/02/27 05:07:40;;;;;;;10.67;4.17;;;;;;;;;;5171257;27;20193;-77
2022/02/27 05:10:08;;;;;;;19.67;6.10;;;;;;;;;;5170365;27;20423;-79
2022/02/27 05:12:34;;;;;;;10.23;4.68;;;;;;;;;;5101537;27;20189;-77
2022/02/27 05:15:00;;;;;;;9.13;5.28;;;;;;;;;;5038635;28;20595;-78
2022/02/27 05:17:26;;;;;;;9.80;4.60;;;;;;;;;;5046751;28;21150;-77
2022/02/27 05:19:52;;;;;;;12.82;4.97;;;;;;;;;;4991779;28;20199;-77
2022/02/27 05:22:18;;;;;;;13.07;5.10;;;;;;;;;;4969338;28;20270;-79
2022/02/27 05:27:31;;;;;;;9.88;4.65;;;;;;;;;;5192854;27;20910;-77
2022/02/27 05:29:57;;;;;;;12.32;5.30;;;;;;;;;;5170715;27;20193;-77
2022/02/27 05:32:23;;;;;;;8.95;5.13;;;;;;;;;;5192000;27;20203;-76
2022/02/27 05:34:52;;;;;;;7.97;4.90;;;;;;;;;;5165106;27;20190;-77
2022/02/27 05:37:18;;;;;;;12.88;4.50;;;;;;;;;;5099628;28;20315;-76
2022/02/27 05:39:44;;;;;;;15.20;5.47;;;;;;;;;;5079489;28;20219;-78
2022/02/27 05:42:10;;;;;;;10.00;5.75;;;;;;;;;;5128331;27;20469;-76
2022/02/27 05:44:36;;;;;;;10.75;5.60;;;;;;;;;;5140277;27;20235;-76
2022/02/27 05:47:03;;;;;;;10.45;5.57;;;;;;;;;;5073337;28;20239;-75
2022/02/27 05:52:42;;;;;;;7.72;4.30;;;;;;;;;;5193048;27;21016;-78
2022/02/27 05:55:08;;;;;;;16.45;5.10;;;;;;;;;;5185856;27;20185;-76
2022/02/27 05:57:34;;;;;;;12.80;5.10;;;;;;;;;;5171024;27;20221;-76
2022/02/27 06:00:00;;;;;;;11.73;4.97;;;;;;;;;;5170610;27;20634;-78
2022/02/27 06:02:26;;;;;;;10.20;4.87;;;;;;;;;;5079623;28;20200;-75
2022/02/27 06:04:52;;;;;;;14.23;5.32;;;;;;;;;;5035705;28;20439;-76
2022/02/27 06:07:18;;;;;;;9.65;4.22;;;;;;;;;;5051948;28;20212;-77
2022/02/27 06:09:44;;;;;;;18.25;5.63;;;;;;;;;;5081335;28;20201;-77
2022/02/27 06:12:10;;;;;;;17.43;5.77;;;;;;;;;;5036013;28;20290;-78
2022/02/27 06:17:14;;;;;;;14.18;4.53;;;;;;;;;;5173106;27;20508;-78
2022/02/27 06:19:40;;;;;;;12.05;5.35;;;;;;;;;;5187639;27;20191;-76
2022/02/27 06:22:06;;;;;;;11.43;4.50;;;;;;;;;;5192078;27;20595;-77
2022/02/27 06:24:32;;;;;;;7.57;4.45;;;;;;;;;;5191526;27;20473;-76
2022/02/27 06:26:58;;;;;;;10.75;4.10;;;;;;;;;;5136984;27;20222;-75
2022/02/27 06:29:24;;;;;;;7.47;3.50;;;;;;;;;;5115440;28;20259;-75
2022/02/27 06:31:50;;;;;;;9.23;4.68;;;;;;;;;;5134923;27;20198;-77
2022/02/27 06:34:16;;;;;;;9.48;5.30;;;;;;;;;;5043222;28;20195;-76
2022/02/27 06:36:42;;;;;;;13.35;5.00;;;;;;;;;;4977443;28;20237;-75
2022/02/27 06:41:47;;;;;;;10.00;4.47;;;;;;;;;;5192906;27;20476;-76
2022/02/27 06:44:13;;;;;;;6.25;3.60;;;;;;;;;;5187613;27;20189;-74
2022/02/27 06:46:39;;;;;;;8.57;4.07;;;;;;;;;;5155356;27;20605;-76
2022/02/27 06:49:05;;;;;;;10.67;5.27;;;;;;;;;;5170713;27;20203;-75
2022/02/27 06:51:31;;;;;;;7.78;4.07;;;;;;;;;;5130331;27;20434;-75
2022/02/27 06:53:57;;;;;;;12.00;4.00;;;;;;;;;;5132939;27;20584;-77
2022/02/27 06:56:23;;;;;;;9.65;3.67;;;;;;;;;;5124105;28;20212;-74
2022/02/27 06:58:49;;;;;;;7.80;3.95;;;;;;;;;;5122393;28;20546;-75
2022/02/27 07:01:18;;;;;;;8.82;3.03;;;;;;;;;;5118022;28;20243;-78
2022/02/27 07:06:23;;;;;;;10.20;5.10;;;;;;;;;;5179863;27;20518;-78
2022/02/27 07:08:49;;;;;;;14.35;5.07;;;;;;;;;;5170654;27;20189;-78
2022/02/27 07:11:14;;;;;;;9.60;4.10;;;;;;;;;;5191903;27;20255;-78
2022/02/27 07:13:41;;;;;;;9.57;5.03;;;;;;;;;;5191588;27;20520;-76
2022/02/27 07:16:07;;;;;;;9.77;4.65;;;;;;;;;;5128990;27;20928;-76
2022/02/27 07:18:33;;;;;;;12.30;4.13;;;;;;;;;;5089269;28;20273;-75
2022/02/27 07:20:59;;;;;;;8.70;4.50;;;;;;;;;;4973916;28;20931;-78
2022/02/27 07:23:25;;;;;;;13.02;5.32;;;;;;;;;;4924030;28;20840;-77
2022/02/27 07:25:51;;;;;;;13.73;5.07;;;;;;;;;;4977709;28;20313;-77
2022/02/27 07:30:55;;;;;;;8.35;4.80;;;;;;;;;;5192614;27;20852;-80
2022/02/27 07:33:23;;;;;;;6.22;5.18;;;;;;;;;;5188071;27;20193;-77
2022/02/27 07:35:49;;;;;;;9.85;5.28;;;;;;;;;;5184440;27;20233;-79
2022/02/27 07:38:15;;;;;;;8.97;4.07;;;;;;;;;;5147987;27;20634;-77
2022/02/27 07:40:41;;;;;;;14.48;5.32;;;;;;;;;;5140569;27;20435;-77
2022/02/27 07:43:07;;;;;;;6.95;4.20;;;;;;;;;;5140787;27;20583;-78
2022/02/27 07:45:33;;;;;;;8.20;4.05;;;;;;;;;;5142011;27;20210;-78
2022/02/27 07:47:58;;;;;;;8.30;3.53;;;;;;;;;;5102358;28;20631;-77
2022/02/27 07:50:24;;;;;;;12.77;5.33;;;;;;;;;;4927396;28;20233;-77
2022/02/27 07:55:30;;;;;;;9.32;4.88;;;;;;;;;;5187882;27;20501;-78
2022/02/27 07:57:56;;;;;;;7.20;4.20;;;;;;;;;;5170714;27;20194;-79
2022/02/27 08:00:22;;;;;;;8.45;4.93;;;;;;;;;;5191965;27;20436;-79
2022/02/27 08:02:48;;;;;;;7.65;4.57;;;;;;;;;;5166958;27;20185;-78
2022/02/27 08:05:14;;;;;;;8.60;4.90;;;;;;;;;;5137085;27;20269;-79
2022/02/27 08:07:40;;;;;;;11.40;5.20;;;;;;;;;;5089152;28;20221;-76
2022/02/27 08:10:06;;;;;;;11.13;5.50;;;;;;;;;;5077266;28;20556;-77
2022/02/27 08:12:32;;;;;;;11.40;4.30;;;;;;;;;;5056290;28;20271;-77
2022/02/27 08:14:58;;;;;;;13.40;5.43;;;;;;;;;;5049327;28;20224;-77
2022/02/27 08:20:03;;;;;;;11.40;5.25;;;;;;;;;;5193062;27;20318;-78
2022/02/27 08:22:29;;;;;;;10.88;4.70;;;;;;;;;;5172981;27;20189;-77
2022/02/27 08:24:55;;;;;;;7.30;4.68;;;;;;;;;;5191674;27;20746;-77
2022/02/27 08:27:21;;;;;;;7.15;4.70;;;;;;;;;;5127147;27;20219;-79
2022/02/27 08:29:49;;;;;;;9.63;4.57;;;;;;;;;;5135594;27;20365;-77
2022/02/27 08:32:15;;;;;;;11.57;4.78;;;;;;;;;;5080355;28;20185;-76
2022/02/27 08:34:41;;;;;;;10.90;5.35;;;;;;;;;;4992840;28;20219;-78
2022/02/27 08:37:07;;;;;;;11.52;4.80;;;;;;;;;;4935491;28;20570;-77
2022/02/27 08:39:34;;;;;;;5.67;4.10;;;;;;;;;;4870734;29;20236;-77
2022/02/27 08:43:58;;;;;;;13.40;4.93;;;;;;;;;;5193604;27;20476;-76
2022/02/27 08:46:24;;;;;;;5.70;4.28;;;;;;;;;;5158271;27;20282;-77
2022/02/27 08:48:50;;;;;;;8.32;4.60;;;;;;;;;;5171036;27;20701;-77
2022/02/27 08:51:16;;;;;;;9.52;4.32;;;;;;;;;;5139810;27;20649;-77
2022/02/27 08:53:42;;;;;;;9.65;5.05;;;;;;;;;;5092847;28;20272;-76
2022/02/27 08:56:08;;;;;;;11.43;4.37;;;;;;;;;;5000946;28;20702;-77
2022/02/27 08:58:34;;;;;;;7.85;4.28;;;;;;;;;;5010307;28;20440;-76
2022/02/27 09:01:00;;;;;;;12.63;4.70;;;;;;;;;;4993185;28;20196;-78
2022/02/27 09:03:27;;;;;;;7.43;3.80;;;;;;;;;;4905613;28;20493;-77
2022/02/27 09:08:30;;;;;;;6.20;3.63;;;;;;;;;;5192954;27;20477;-77
2022/02/27 09:10:56;;;;;;;7.40;4.43;;;;;;;;;;5187766;27;20539;-76
2022/02/27 09:13:22;;;;;;;9.30;4.40;;;;;;;;;;5192021;27;20422;-77
2022/02/27 09:15:48;;;;;;;11.27;3.85;;;;;;;;;;5183981;27;20458;-78
2022/02/27 09:18:14;;;;;;;7.38;3.80;;;;;;;;;;5089752;28;20569;-75
2022/02/27 09:20:41;;;;;;;5.43;3.40;;;;;;;;;;5041505;28;20192;-78
2022/02/27 09:23:07;;;;;;;5.07;3.40;;;;;;;;;;4986733;28;20483;-77
2022/02/27 09:25:33;;;;;;;9.13;3.60;;;;;;;;;;4936260;29;20311;-77
2022/02/27 09:27:59;;;;;;;8.55;4.32;;;;;;;;;;4911287;29;20305;-77
2022/02/27 09:33:05;;;;;;;4.07;3.10;;;;;;;;;;5192807;27;20478;-78
2022/02/27 09:35:31;;;;;;;6.15;3.83;;;;;;;;;;5165623;27;20209;-76
2022/02/27 09:37:57;;;;;;;7.90;3.40;;;;;;;;;;5151455;27;20196;-77
2022/02/27 09:40:24;;;;;;;7.85;4.03;;;;;;;;;;5170720;27;20431;-78
2022/02/27 09:42:51;;;;;;;8.15;3.60;;;;;;;;;;5114090;28;20195;-77
2022/02/27 09:45:17;;;;;;;5.65;3.22;;;;;;;;;;5098169;28;20192;-76
2022/02/27 09:47:43;;;;;;;7.03;2.80;;;;;;;;;;5056574;28;20674;-76
2022/02/27 09:50:09;;;;;;;5.00;3.63;;;;;;;;;;5024653;28;20437;-77
2022/02/27 09:52:35;;;;;;;10.00;3.22;;;;;;;;;;5014612;28;20484;-79
2022/02/27 09:57:35;;;;;;;5.28;3.00;;;;;;;;;;5192902;27;20642;-76
2022/02/27 10:00:02;;;;;;;5.95;2.45;;;;;;;;;;5187669;27;20189;-76
2022/02/27 10:02:28;;;;;;;5.25;3.10;;;;;;;;;;5192286;27;20184;-77
2022/02/27 10:04:59;;;;;;;6.30;2.67;;;;;;;;;;5170776;27;20200;-79
2022/02/27 10:07:25;;;;;;;4.23;2.80;;;;;;;;;;5128405;27;20933;-79
2022/02/27 10:10:02;;;;;;;6.60;3.07;;;;;;;;;;5068761;28;20447;-77
2022/02/27 10:12:28;;;;;;;5.63;2.60;;;;;;;;;;5026237;28;20435;-75
2022/02/27 10:15:08;;;;;;;4.73;3.20;;;;;;;;;;4992059;28;20497;-76
2022/02/27 10:17:36;;;;;;;7.67;2.93;;;;;;;;;;4758761;29;20464;-76
2022/02/27 10:22:28;;;;;;;4.23;2.60;;;;;;;;;;5192845;27;20467;-75
2022/02/27 10:24:54;;;;;;;5.07;2.13;;;;;;;;;;5169940;27;20970;-76
2022/02/27 10:27:21;;;;;;;4.33;2.90;;;;;;;;;;5136447;27;20480;-79
2022/02/27 10:29:47;;;;;;;5.07;2.50;;;;;;;;;;5161446;27;20431;-79
2022/02/27 10:32:13;;;;;;;4.50;2.80;;;;;;;;;;5142307;27;20436;-79
2022/02/27 10:34:40;;;;;;;3.90;2.40;;;;;;;;;;5114164;28;20426;-77
2022/02/27 10:37:16;;;;;;;5.00;2.53;;;;;;;;;;5086908;28;20437;-76
2022/02/27 10:39:52;;;;;;;4.13;2.67;;;;;;;;;;4988450;28;20764;-76
2022/02/27 10:42:19;;;;;;;3.10;2.13;;;;;;;;;;4824539;29;20442;-78
2022/02/27 10:46:36;;;;;;;4.63;3.17;;;;;;;;;;5178868;27;20495;-77
2022/02/27 10:49:02;;;;;;;5.63;2.47;;;;;;;;;;5146590;27;20523;-76
2022/02/27 10:51:34;;;;;;;3.90;2.30;;;;;;;;;;5173222;27;20839;-79
2022/02/27 10:53:59;;;;;;;4.77;2.03;;;;;;;;;;5166715;27;20432;-77
2022/02/27 10:56:32;;;;;;;5.33;2.70;;;;;;;;;;5124286;27;20422;-76
2022/02/27 10:58:58;;;;;;;5.27;2.20;;;;;;;;;;5075803;28;20470;-76
2022/02/27 11:01:25;;;;;;;5.83;3.70;;;;;;;;;;5047649;28;20805;-74
2022/02/27 11:03:53;;;;;;;4.20;2.30;;;;;;;;;;4981497;28;20461;-76
2022/02/27 11:06:19;;;;;;;4.47;2.27;;;;;;;;;;4868087;29;20584;-77
2022/02/27 11:10:31;;;;;;;4.93;2.30;;;;;;;;;;5193124;27;20480;-77
2022/02/27 11:12:58;;;;;;;4.10;2.63;;;;;;;;;;5170969;27;20421;-77
2022/02/27 11:15:24;;;;;;;6.27;2.40;;;;;;;;;;5187900;27;20431;-78
2022/02/27 11:17:50;;;;;;;4.43;1.80;;;;;;;;;;5146943;27;20793;-78
2022/02/27 11:20:19;;;;;;;3.77;2.50;;;;;;;;;;5109656;27;20438;-78
2022/02/27 11:22:45;;;;;;;3.83;2.43;;;;;;;;;;5051926;28;20429;-78
2022/02/27 11:25:12;;;;;;;4.50;2.47;;;;;;;;;;5043934;28;20437;-78
2022/02/27 11:27:39;;;;;;;3.23;2.47;;;;;;;;;;4929430;28;20437;-78
2022/02/27 11:30:06;;;;;;;4.43;2.13;;;;;;;;;;4818148;29;20571;-79
2022/02/27 11:35:06;;;;;;;4.27;2.20;;;;;;;;;;5191508;27;20295;-77
2022/02/27 11:37:51;;;;;;;3.50;2.40;;;;;;;;;;5170923;27;20424;-78
2022/02/27 11:40:28;;;;;;;6.30;2.57;;;;;;;;;;5168693;27;20477;-78
2022/02/27 11:42:55;;;;;;;3.10;2.17;;;;;;;;;;5147902;27;20419;-78
2022/02/27 11:45:22;;;;;;;2.73;2.53;;;;;;;;;;5134696;27;20782;-77
2022/02/27 11:47:49;;;;;;;5.27;3.13;;;;;;;;;;5118662;28;20427;-79
2022/02/27 11:50:26;;;;;;;3.87;2.33;;;;;;;;;;5077843;28;20465;-79
2022/02/27 11:52:52;;;;;;;4.40;2.53;;;;;;;;;;4989800;28;20424;-78
2022/02/27 11:55:37;;;;;;;4.07;2.50;;;;;;;;;;4884719;29;20447;-79
2022/02/27 11:59:51;;;;;;;4.13;2.67;;;;;;;;;;5192835;27;20481;-77
2022/02/27 12:02:21;;;;;;;4.80;2.77;;;;;;;;;;5148165;27;20427;-77
2022/02/27 12:04:48;;;;;;;5.57;3.23;;;;;;;;;;5146587;27;20840;-76
2022/02/27 12:07:14;;;;;;;4.30;2.50;;;;;;;;;;5129069;27;20772;-78
2022/02/27 12:09:52;;;;;;;5.07;2.73;;;;;;;;;;5054142;28;20437;-79
2022/02/27 12:12:30;;;;;;;4.23;2.43;;;;;;;;;;4972694;28;20429;-78
2022/02/27 12:15:16;;;;;;;4.30;2.93;;;;;;;;;;4787408;29;20427;-76
2022/02/27 12:17:52;;;;;;;5.20;2.80;;;;;;;;;;4564338;31;20493;-76
2022/02/27 12:22:59;;;;;;;5.30;2.90;;;;;;;;;;5192704;27;20489;-77
2022/02/27 12:25:33;;;;;;;5.13;2.90;;;;;;;;;;5149822;27;20443;-77
2022/02/27 12:27:59;;;;;;;3.93;2.77;;;;;;;;;;5154083;27;20419;-75
2022/02/27 12:30:25;;;;;;;4.70;2.70;;;;;;;;;;5158181;27;20897;-78
2022/02/27 12:32:51;;;;;;;4.20;2.30;;;;;;;;;;5101122;28;20463;-78
2022/02/27 12:35:18;;;;;;;3.33;3.03;;;;;;;;;;5058505;28;20438;-76
2022/02/27 12:37:44;;;;;;;2.93;2.70;;;;;;;;;;4940823;28;20505;-75
2022/02/27 12:40:11;;;;;;;5.47;3.40;;;;;;;;;;4930304;28;20841;-77
2022/02/27 12:42:37;;;;;;;5.33;3.30;;;;;;;;;;4864466;29;20456;-77
2022/02/27 12:47:27;;;;;;;4.47;2.57;;;;;;;;;;5172017;27;20350;-76
2022/02/27 12:52:42;;;;;;;3.73;2.50;;;;;;;;;;5142359;27;20472;-77
2022/02/27 12:55:16;;;;;;;4.13;2.93;;;;;;;;;;5103413;28;20423;-76
2022/02/27 12:57:48;;;;;;;5.17;2.27;;;;;;;;;;5063387;28;20427;-78
2022/02/27 13:00:14;;;;;;;5.53;2.53;;;;;;;;;;5052274;28;20395;-78
2022/02/27 13:02:40;;;;;;;2.73;2.20;;;;;;;;;;5035227;28;21385;-78
2022/02/27 13:05:12;;;;;;;4.33;2.73;;;;;;;;;;4984507;28;20548;-79
2022/02/27 13:07:38;;;;;;;4.43;3.10;;;;;;;;;;4856256;29;20447;-77
2022/02/27 13:11:47;;;;;;;4.00;2.50;;;;;;;;;;5193280;27;20485;-77
2022/02/27 13:14:14;;;;;;;4.40;2.57;;;;;;;;;;5170412;27;20425;-77
2022/02/27 13:16:41;;;;;;;4.60;2.77;;;;;;;;;;5170882;27;20424;-78
2022/02/27 13:19:07;;;;;;;5.70;2.77;;;;;;;;;;5138289;27;20763;-78
2022/02/27 13:21:33;;;;;;;4.20;2.90;;;;;;;;;;5115677;27;20434;-77
2022/02/27 13:24:00;;;;;;;3.43;2.43;;;;;;;;;;5108048;27;20448;-75
2022/02/27 13:26:28;;;;;;;4.03;2.60;;;;;;;;;;5138348;27;20428;-76
2022/02/27 13:28:55;;;;;;;7.50;2.27;;;;;;;;;;5020536;28;20442;-77
2022/02/27 13:31:22;;;;;;;5.83;2.20;;;;;;;;;;4958073;28;20892;-78
2022/02/27 13:35:50;;;;;;;3.80;2.37;;;;;;;;;;5185609;27;20502;-78
2022/02/27 13:38:22;;;;;;;4.80;2.10;;;;;;;;;;5187797;27;20495;-76
2022/02/27 13:40:49;;;;;;;3.27;2.10;;;;;;;;;;5166679;27;20984;-79
2022/02/27 13:43:19;;;;;;;4.10;2.30;;;;;;;;;;5186033;27;20401;-76
2022/02/27 13:45:45;;;;;;;4.67;2.20;;;;;;;;;;5110371;27;20452;-78
2022/02/27 13:48:12;;;;;;;2.93;2.57;;;;;;;;;;5069370;28;20414;-76
2022/02/27 13:50:40;;;;;;;3.00;2.10;;;;;;;;;;5069531;28;20394;-78
2022/02/27 13:53:07;;;;;;;3.73;1.90;;;;;;;;;;4957786;28;20820;-77
2022/02/27 13:55:35;;;;;;;1.43;1.20;;;;;;;;;;5021072;28;20475;-77
2022/02/27 14:00:30;;;;;;;3.40;2.30;;;;;;;;;;5193027;27;20827;-79
2022/02/27 14:03:03;;;;;;;2.80;1.93;;;;;;;;;;5172727;27;20500;-76
2022/02/27 14:05:29;;;;;;;3.80;2.33;;;;;;;;;;5139795;27;20438;-79
2022/02/27 14:07:56;;;;;;;2.97;1.80;;;;;;;;;;5095199;28;20431;-78
2022/02/27 14:10:26;;;;;;;2.60;2.10;;;;;;;;;;5060174;28;20773;-76
2022/02/27 14:13:00;;;;;;;2.10;1.80;;;;;;;;;;5046768;28;20425;-77
2022/02/27 14:15:30;;;;;;;2.13;1.50;;;;;;;;;;5041858;28;20444;-78
2022/02/27 14:17:57;;;;;;;3.50;1.80;;;;;;;;;;4985148;28;20424;-78
2022/02/27 14:23:14;;;;;;;3.17;1.90;;;;;;;;;;5193009;27;20493;-75
2022/02/27 14:25:47;;;;;;;2.93;1.50;;;;;;;;;;5181134;27;20420;-76
2022/02/27 14:28:12;;;;;;;3.87;1.97;;;;;;;;;;5143168;27;20440;-75
2022/02/27 14:30:39;;;;;;;1.73;1.63;;;;;;;;;;5140058;27;20440;-76
2022/02/27 14:33:06;;;;;;;3.57;2.40;;;;;;;;;;5098708;28;20396;-75
2022/02/27 14:35:32;;;;;;;3.50;2.00;;;;;;;;;;5053455;28;20444;-75
2022/02/27 14:37:58;;;;;;;3.03;2.30;;;;;;;;;;5033362;28;20512;-74
2022/02/27 14:40:24;;;;;;;3.70;1.80;;;;;;;;;;5013433;28;20537;-77
2022/02/27 14:42:51;;;;;;;2.47;2.20;;;;;;;;;;4911331;28;20573;-75
2022/02/27 14:47:39;;;;;;;3.07;1.77;;;;;;;;;;5193104;27;20485;-79
2022/02/27 14:50:05;;;;;;;2.60;2.40;;;;;;;;;;5170974;27;20441;-78
2022/02/27 14:52:31;;;;;;;3.70;1.80;;;;;;;;;;5191845;27;20397;-77
2022/02/27 14:54:57;;;;;;;3.63;1.70;;;;;;;;;;5175867;27;20498;-79
2022/02/27 14:57:23;;;;;;;3.27;2.00;;;;;;;;;;5143114;27;20538;-79
2022/02/27 14:59:49;;;;;;;2.67;2.27;;;;;;;;;;5093535;28;20461;-78
2022/02/27 15:02:15;;;;;;;2.40;1.80;;;;;;;;;;5103026;28;20941;-79
2022/02/27 15:04:42;;;;;;;2.03;1.53;;;;;;;;;;5019729;28;20865;-81
2022/02/27 15:07:08;;;;;;;3.77;2.77;;;;;;;;;;4948473;28;20488;-78
2022/02/27 15:11:40;;;;;;;7.50;1.83;;;;;;;;;;5193156;27;20280;-75
2022/02/27 15:14:06;;;;;;;5.40;2.10;;;;;;;;;;5187415;27;20791;-77
2022/02/27 15:16:36;;;;;;;2.50;1.70;;;;;;;;;;5177999;27;20919;-78
2022/02/27 15:19:02;;;;;;;2.33;1.80;;;;;;;;;;5170440;27;20774;-76
2022/02/27 15:21:28;;;;;;;3.43;1.93;;;;;;;;;;5161358;27;20491;-79
2022/02/27 15:23:54;;;;;;;3.00;1.90;;;;;;;;;;5110743;27;20485;-78
2022/02/27 15:26:20;;;;;;;3.63;1.90;;;;;;;;;;5037119;28;20462;-78
2022/02/27 15:28:48;;;;;;;3.30;1.67;;;;;;;;;;4895368;28;20444;-77
2022/02/27 15:31:14;;;;;;;3.53;2.47;;;;;;;;;;4765315;29;20495;-76
2022/02/27 15:36:18;;;;;;;3.60;2.33;;;;;;;;;;5181660;27;20510;-80
2022/02/27 15:38:46;;;;;;;4.00;2.03;;;;;;;;;;5171337;27;20415;-75
2022/02/27 15:41:12;;;;;;;3.73;1.83;;;;;;;;;;5192636;27;20405;-76
2022/02/27 15:43:38;;;;;;;4.60;2.60;;;;;;;;;;5191592;27;20421;-74
2022/02/27 15:46:04;;;;;;;2.97;2.10;;;;;;;;;;5182102;27;21014;-76
2022/02/27 15:48:30;;;;;;;5.17;2.17;;;;;;;;;;5184286;27;20431;-75
2022/02/27 15:50:56;;;;;;;2.83;2.10;;;;;;;;;;5079220;27;20453;-76
2022/02/27 15:53:22;;;;;;;4.83;2.20;;;;;;;;;;5041475;28;20421;-76
2022/02/27 15:55:49;;;;;;;2.90;2.10;;;;;;;;;;4905890;29;20554;-78
2022/02/27 16:00:01;;;;;;;2.87;2.57;;;;;;;;;;5193307;27;20820;-75
2022/02/27 16:02:27;;;;;;;4.00;2.60;;;;;;;;;;5188183;27;20458;-76
2022/02/27 16:04:54;;;;;;;4.43;2.30;;;;;;;;;;5172249;27;20457;-74
2022/02/27 16:07:20;;;;;;;3.50;2.30;;;;;;;;;;5171246;27;20468;-74
2022/02/27 16:09:46;;;;;;;2.17;2.00;;;;;;;;;;5118997;27;20833;-76
2022/02/27 16:12:12;;;;;;;3.30;2.43;;;;;;;;;;5028768;28;20439;-78